Time;durP1;ratioP1;P1;durP2;ratioP2;P2;SDS_P1;SDS_P2;PMS_P1;PMS_P2;Temp;Humidity;BMP_temperature;BMP_pressure;BME280_temperature;BME280_humidity;BME280_pressure;Samples;Min_cycle;Max_cycle;Signal;HPM_P1;HPM_P2
2022/12/09 00:00:36;;;;;;;8.23;5.75;;;;;;;;;;5109237;28;20047;-62
2022/12/09 00:03:01;;;;;;;6.90;5.32;;;;;;;;;;5113147;28;20019;-61
2022/12/09 00:05:27;;;;;;;9.13;5.35;;;;;;;;;;5113547;28;20043;-60
2022/12/09 00:07:52;;;;;;;6.75;5.22;;;;;;;;;;5113401;28;20023;-61
2022/12/09 00:10:18;;;;;;;7.45;5.57;;;;;;;;;;5113520;28;20022;-61
2022/12/09 00:12:44;;;;;;;6.55;5.28;;;;;;;;;;5114386;28;20016;-61
2022/12/09 00:15:10;;;;;;;9.05;5.80;;;;;;;;;;5114593;27;20479;-60
2022/12/09 00:17:35;;;;;;;8.75;5.72;;;;;;;;;;5114546;28;20023;-63
2022/12/09 00:20:01;;;;;;;8.85;5.53;;;;;;;;;;5114494;28;20020;-60
2022/12/09 00:22:27;;;;;;;7.57;5.18;;;;;;;;;;5114752;28;20039;-62
2022/12/09 00:24:52;;;;;;;8.40;5.50;;;;;;;;;;5113357;27;20024;-62
2022/12/09 00:27:18;;;;;;;6.68;4.88;;;;;;;;;;5114359;28;20035;-63
2022/12/09 00:29:43;;;;;;;7.28;5.30;;;;;;;;;;5114452;28;20032;-60
2022/12/09 00:32:09;;;;;;;8.02;5.13;;;;;;;;;;5114272;27;20406;-60
2022/12/09 00:34:35;;;;;;;7.63;5.20;;;;;;;;;;5114474;28;20023;-60
2022/12/09 00:37:00;;;;;;;7.75;5.03;;;;;;;;;;5114475;28;20472;-61
2022/12/09 00:39:26;;;;;;;8.75;5.28;;;;;;;;;;5114512;28;20474;-60
2022/12/09 00:41:51;;;;;;;8.23;5.70;;;;;;;;;;5114375;28;20043;-60
2022/12/09 00:44:18;;;;;;;6.70;4.97;;;;;;;;;;5112808;28;20647;-60
2022/12/09 00:46:43;;;;;;;6.93;5.22;;;;;;;;;;5113775;28;20497;-60
2022/12/09 00:49:09;;;;;;;7.15;5.05;;;;;;;;;;5113944;28;20031;-60
2022/12/09 00:51:35;;;;;;;8.98;5.40;;;;;;;;;;5113910;28;20019;-60
2022/12/09 00:54:01;;;;;;;7.35;4.90;;;;;;;;;;5114192;28;20030;-60
2022/12/09 00:56:28;;;;;;;7.97;5.32;;;;;;;;;;5113792;28;20467;-60
2022/12/09 00:58:54;;;;;;;6.40;5.07;;;;;;;;;;5113860;28;20391;-60
2022/12/09 01:01:20;;;;;;;7.60;5.63;;;;;;;;;;5113959;28;20102;-60
2022/12/09 01:03:46;;;;;;;8.40;5.40;;;;;;;;;;5113690;28;20110;-61
2022/12/09 01:06:16;;;;;;;6.35;4.85;;;;;;;;;;5113597;28;20039;-60
2022/12/09 01:08:42;;;;;;;7.82;5.10;;;;;;;;;;5113588;28;20115;-60
2022/12/09 01:11:15;;;;;;;7.75;5.20;;;;;;;;;;5113520;28;20090;-61
2022/12/09 01:13:41;;;;;;;7.90;5.57;;;;;;;;;;5113550;28;20015;-60
2022/12/09 01:16:28;;;;;;;7.32;4.90;;;;;;;;;;5112885;28;20039;-61
2022/12/09 01:18:58;;;;;;;7.03;5.07;;;;;;;;;;5113523;28;20020;-61
2022/12/09 01:21:25;;;;;;;7.25;5.45;;;;;;;;;;5113395;27;20049;-60
2022/12/09 01:23:51;;;;;;;6.90;5.15;;;;;;;;;;5095623;28;20453;-61
2022/12/09 01:26:17;;;;;;;7.32;4.95;;;;;;;;;;5113265;28;20019;-61
2022/12/09 01:28:42;;;;;;;5.75;4.80;;;;;;;;;;5112274;28;20031;-60
2022/12/09 01:31:12;;;;;;;6.70;5.28;;;;;;;;;;5113245;28;20410;-60
2022/12/09 01:33:38;;;;;;;9.38;5.18;;;;;;;;;;5113226;28;20099;-60
2022/12/09 01:36:06;;;;;;;6.38;4.72;;;;;;;;;;5113374;28;20265;-60
2022/12/09 01:38:31;;;;;;;6.80;5.18;;;;;;;;;;5113024;28;20089;-61
2022/12/09 01:40:57;;;;;;;6.80;5.13;;;;;;;;;;5113099;28;20023;-61
2022/12/09 01:43:22;;;;;;;6.80;5.03;;;;;;;;;;5113319;28;20438;-60
2022/12/09 01:45:48;;;;;;;7.93;5.30;;;;;;;;;;5113276;28;20020;-60
2022/12/09 01:48:17;;;;;;;5.95;4.68;;;;;;;;;;5112628;28;20456;-60
2022/12/09 01:51:09;;;;;;;6.93;4.88;;;;;;;;;;5112957;28;20054;-62
2022/12/09 01:53:37;;;;;;;6.60;4.55;;;;;;;;;;5112853;28;20026;-61
2022/12/09 01:56:07;;;;;;;9.60;4.85;;;;;;;;;;5113131;28;20028;-61
2022/12/09 01:58:33;;;;;;;8.77;5.35;;;;;;;;;;5113120;28;20027;-61
2022/12/09 02:00:59;;;;;;;6.32;4.75;;;;;;;;;;5112849;28;20544;-62
2022/12/09 02:03:24;;;;;;;8.48;5.65;;;;;;;;;;5113034;28;20023;-60
2022/12/09 02:05:50;;;;;;;7.28;5.22;;;;;;;;;;5112754;28;20076;-60
2022/12/09 02:08:18;;;;;;;6.75;4.68;;;;;;;;;;5113014;28;20038;-60
2022/12/09 02:11:13;;;;;;;7.25;5.10;;;;;;;;;;5112743;28;20015;-60
2022/12/09 02:13:59;;;;;;;6.53;5.20;;;;;;;;;;5113044;28;20024;-61
2022/12/09 02:16:29;;;;;;;6.63;4.85;;;;;;;;;;5113174;28;20020;-63
2022/12/09 02:18:57;;;;;;;5.70;4.95;;;;;;;;;;5112616;28;20038;-61
2022/12/09 02:21:43;;;;;;;7.60;5.28;;;;;;;;;;5112767;28;20383;-63
2022/12/09 02:24:16;;;;;;;7.13;5.00;;;;;;;;;;5112706;28;20032;-62
2022/12/09 02:26:49;;;;;;;6.68;4.70;;;;;;;;;;5114031;28;20019;-62
2022/12/09 02:29:44;;;;;;;6.32;5.03;;;;;;;;;;5116962;27;20379;-60
2022/12/09 02:32:31;;;;;;;7.00;4.85;;;;;;;;;;5114416;28;20063;-62
2022/12/09 02:35:03;;;;;;;6.47;4.82;;;;;;;;;;5116680;28;20032;-63
2022/12/09 02:37:54;;;;;;;5.78;4.88;;;;;;;;;;5116644;28;20045;-62
2022/12/09 02:40:29;;;;;;;5.47;4.43;;;;;;;;;;5116194;28;20053;-61
2022/12/09 02:42:58;;;;;;;8.07;5.38;;;;;;;;;;5116491;28;20030;-62
2022/12/09 02:45:27;;;;;;;6.93;4.85;;;;;;;;;;5116439;28;20607;-62
2022/12/09 02:47:53;;;;;;;6.65;4.63;;;;;;;;;;5116212;28;20053;-61
2022/12/09 02:50:26;;;;;;;6.45;4.65;;;;;;;;;;5116401;28;20023;-62
2022/12/09 02:52:53;;;;;;;5.72;4.30;;;;;;;;;;5116256;28;20024;-62
2022/12/09 02:55:21;;;;;;;6.70;4.50;;;;;;;;;;5116334;28;20027;-61
2022/12/09 02:57:49;;;;;;;7.70;4.95;;;;;;;;;;5116146;28;20046;-61
2022/12/09 03:00:15;;;;;;;6.95;4.88;;;;;;;;;;5116461;28;20027;-60
2022/12/09 03:02:47;;;;;;;5.68;4.35;;;;;;;;;;5116056;28;20030;-61
2022/12/09 03:05:30;;;;;;;7.35;5.03;;;;;;;;;;5116325;28;20022;-62
2022/12/09 03:08:02;;;;;;;5.85;4.50;;;;;;;;;;5115919;28;20038;-63
2022/12/09 03:10:36;;;;;;;6.47;4.95;;;;;;;;;;5116150;28;20020;-60
2022/12/09 03:13:35;;;;;;;7.28;4.95;;;;;;;;;;5115988;28;20020;-61
2022/12/09 03:16:09;;;;;;;6.10;4.55;;;;;;;;;;5114608;28;20032;-63
2022/12/09 03:18:41;;;;;;;7.88;5.28;;;;;;;;;;5115763;28;20483;-60
2022/12/09 03:21:07;;;;;;;6.35;4.47;;;;;;;;;;5115995;28;20390;-61
2022/12/09 03:23:34;;;;;;;6.85;5.00;;;;;;;;;;5115664;27;20026;-62
2022/12/09 03:26:02;;;;;;;6.25;5.03;;;;;;;;;;5115637;28;20019;-64
2022/12/09 03:28:39;;;;;;;7.57;5.25;;;;;;;;;;5115487;28;20038;-63
2022/12/09 03:31:11;;;;;;;6.10;4.80;;;;;;;;;;5115828;28;20120;-60
2022/12/09 03:33:38;;;;;;;6.30;4.32;;;;;;;;;;5115472;28;20027;-61
2022/12/09 03:36:06;;;;;;;6.80;5.00;;;;;;;;;;5115381;28;20020;-61
2022/12/09 03:38:37;;;;;;;7.13;4.93;;;;;;;;;;5114491;28;20156;-62
2022/12/09 03:41:25;;;;;;;6.28;5.03;;;;;;;;;;5115359;28;20081;-63
2022/12/09 03:44:00;;;;;;;7.07;5.00;;;;;;;;;;5115328;28;20116;-63
2022/12/09 03:46:28;;;;;;;7.05;4.53;;;;;;;;;;5115019;27;20020;-64
2022/12/09 03:48:53;;;;;;;5.47;3.97;;;;;;;;;;5115225;28;20028;-63
2022/12/09 03:51:44;;;;;;;6.38;4.40;;;;;;;;;;5115447;28;20030;-62
2022/12/09 03:54:21;;;;;;;;;;;;;;;;;;5115829;27;20023;-61
2022/12/09 03:56:51;;;;;;;6.18;4.45;;;;;;;;;;5115029;28;20003;-60
2022/12/09 03:59:18;;;;;;;6.55;4.53;;;;;;;;;;5113864;28;20114;-63
2022/12/09 04:01:44;;;;;;;6.03;4.93;;;;;;;;;;5115199;28;20078;-63
2022/12/09 04:04:11;;;;;;;6.53;4.78;;;;;;;;;;5115192;28;20028;-63
2022/12/09 04:06:37;;;;;;;6.07;4.55;;;;;;;;;;5114810;28;20361;-63
2022/12/09 04:09:04;;;;;;;6.57;4.57;;;;;;;;;;5115033;28;20023;-61
2022/12/09 04:11:32;;;;;;;5.53;4.55;;;;;;;;;;5114794;28;20095;-61
2022/12/09 04:13:58;;;;;;;6.95;4.20;;;;;;;;;;5114734;28;20024;-61
2022/12/09 04:16:24;;;;;;;6.32;4.70;;;;;;;;;;5114660;28;20528;-61
2022/12/09 04:18:49;;;;;;;6.70;4.22;;;;;;;;;;5114930;28;20024;-62
2022/12/09 04:21:15;;;;;;;6.70;4.35;;;;;;;;;;5114842;28;20473;-62
2022/12/09 04:23:40;;;;;;;5.43;4.50;;;;;;;;;;5114509;28;20028;-62
2022/12/09 04:26:06;;;;;;;6.03;4.45;;;;;;;;;;5114509;28;20035;-63
2022/12/09 04:28:32;;;;;;;6.40;5.15;;;;;;;;;;5114335;28;20028;-62
2022/12/09 04:30:58;;;;;;;5.80;4.43;;;;;;;;;;5114359;28;20023;-62
2022/12/09 04:33:24;;;;;;;7.45;4.70;;;;;;;;;;5114260;28;20020;-64
2022/12/09 04:35:50;;;;;;;5.57;4.55;;;;;;;;;;5114456;28;20030;-61
2022/12/09 04:38:15;;;;;;;7.32;5.00;;;;;;;;;;5114135;27;20443;-62
2022/12/09 04:40:41;;;;;;;6.35;4.78;;;;;;;;;;5114392;28;20020;-61
2022/12/09 04:43:06;;;;;;;6.40;4.68;;;;;;;;;;5114108;28;20381;-62
2022/12/09 04:45:33;;;;;;;6.25;4.55;;;;;;;;;;5113982;28;20110;-63
2022/12/09 04:47:58;;;;;;;5.47;4.55;;;;;;;;;;5113807;28;20082;-61
2022/12/09 04:50:24;;;;;;;6.53;4.63;;;;;;;;;;5113889;27;20055;-63
2022/12/09 04:52:50;;;;;;;6.30;4.57;;;;;;;;;;5113897;28;20015;-60
2022/12/09 04:55:15;;;;;;;6.35;4.55;;;;;;;;;;5113852;28;20114;-63
2022/12/09 04:57:41;;;;;;;6.57;4.30;;;;;;;;;;5113860;27;20034;-61
2022/12/09 05:00:07;;;;;;;7.40;4.85;;;;;;;;;;5114167;27;20032;-60
2022/12/09 05:02:36;;;;;;;6.00;4.78;;;;;;;;;;5112506;28;20042;-63
2022/12/09 05:05:02;;;;;;;6.60;4.50;;;;;;;;;;5113724;27;20588;-62
2022/12/09 05:07:30;;;;;;;6.28;4.68;;;;;;;;;;5113691;28;20035;-63
2022/12/09 05:09:56;;;;;;;5.55;4.43;;;;;;;;;;5112384;28;20463;-63
2022/12/09 05:12:23;;;;;;;7.00;4.65;;;;;;;;;;5113818;28;20035;-60
2022/12/09 05:14:48;;;;;;;7.50;4.80;;;;;;;;;;5113833;28;20019;-61
2022/12/09 05:17:14;;;;;;;6.00;5.00;;;;;;;;;;5113507;28;20069;-60
2022/12/09 05:19:39;;;;;;;6.50;4.80;;;;;;;;;;5113508;28;20028;-62
2022/12/09 05:22:05;;;;;;;6.13;4.68;;;;;;;;;;5113697;28;20029;-62
2022/12/09 05:24:30;;;;;;;6.07;4.82;;;;;;;;;;5113391;28;20378;-61
2022/12/09 05:26:56;;;;;;;6.53;4.82;;;;;;;;;;5113337;27;20470;-61
2022/12/09 05:29:22;;;;;;;7.35;4.63;;;;;;;;;;5113246;28;20038;-61
2022/12/09 05:31:47;;;;;;;8.38;4.82;;;;;;;;;;5113551;28;20047;-61
2022/12/09 05:34:13;;;;;;;8.25;5.50;;;;;;;;;;5113230;28;20028;-60
2022/12/09 05:36:38;;;;;;;8.32;5.03;;;;;;;;;;5113130;28;20110;-61
2022/12/09 05:39:04;;;;;;;6.32;4.85;;;;;;;;;;5113210;28;20062;-61
2022/12/09 05:41:29;;;;;;;8.07;5.13;;;;;;;;;;5113071;28;20062;-60
2022/12/09 05:43:55;;;;;;;6.93;4.88;;;;;;;;;;5113066;28;20028;-60
2022/12/09 05:46:21;;;;;;;7.65;5.47;;;;;;;;;;5113103;28;20035;-61
2022/12/09 05:48:47;;;;;;;6.65;5.07;;;;;;;;;;5112922;28;20379;-61
2022/12/09 05:51:25;;;;;;;8.15;5.00;;;;;;;;;;5113030;28;20069;-61
2022/12/09 05:53:51;;;;;;;7.00;5.35;;;;;;;;;;5113248;28;20453;-61
2022/12/09 05:56:18;;;;;;;6.75;5.03;;;;;;;;;;5113234;28;20027;-61
2022/12/09 05:58:44;;;;;;;7.50;4.95;;;;;;;;;;5113170;28;20382;-61
2022/12/09 06:01:11;;;;;;;6.47;4.78;;;;;;;;;;5112195;28;20023;-61
2022/12/09 06:03:37;;;;;;;7.68;5.10;;;;;;;;;;5112866;28;20035;-62
2022/12/09 06:06:08;;;;;;;6.38;4.90;;;;;;;;;;5113022;28;20443;-61
2022/12/09 06:08:33;;;;;;;;;;;;;;;;;;5113329;28;20028;-59
2022/12/09 06:10:59;;;;;;;6.68;4.68;;;;;;;;;;5112969;28;19918;-62
2022/12/09 06:13:25;;;;;;;8.07;5.28;;;;;;;;;;5112630;28;20031;-62
2022/12/09 06:15:51;;;;;;;7.65;5.28;;;;;;;;;;5112437;28;20028;-60
2022/12/09 06:18:17;;;;;;;8.15;5.35;;;;;;;;;;5106944;28;20072;-62
2022/12/09 06:20:42;;;;;;;6.80;4.63;;;;;;;;;;5110906;28;20375;-62
2022/12/09 06:23:08;;;;;;;7.15;5.07;;;;;;;;;;5109351;28;20487;-61
2022/12/09 06:25:34;;;;;;;7.53;4.95;;;;;;;;;;5111938;28;20032;-60
2022/12/09 06:28:00;;;;;;;6.68;4.60;;;;;;;;;;5112498;28;20020;-60
2022/12/09 06:30:25;;;;;;;5.95;4.45;;;;;;;;;;5112697;28;20098;-60
2022/12/09 06:32:51;;;;;;;7.85;5.15;;;;;;;;;;5112414;28;20026;-61
2022/12/09 06:35:16;;;;;;;5.82;4.60;;;;;;;;;;5112450;28;20028;-61
2022/12/09 06:37:42;;;;;;;7.63;4.90;;;;;;;;;;5112153;28;20031;-61
2022/12/09 06:40:08;;;;;;;9.27;5.60;;;;;;;;;;5110648;28;20425;-61
2022/12/09 06:42:33;;;;;;;7.07;5.20;;;;;;;;;;5111327;28;20034;-62
2022/12/09 06:44:59;;;;;;;8.55;5.30;;;;;;;;;;5110132;28;20024;-59
2022/12/09 06:47:25;;;;;;;6.75;4.85;;;;;;;;;;5111073;28;20039;-60
2022/12/09 06:49:50;;;;;;;8.57;5.40;;;;;;;;;;5111992;28;20031;-60
2022/12/09 06:52:16;;;;;;;6.50;4.90;;;;;;;;;;5112216;28;20085;-62
2022/12/09 06:54:41;;;;;;;7.85;5.10;;;;;;;;;;5112268;28;20034;-61
2022/12/09 06:57:07;;;;;;;8.18;4.97;;;;;;;;;;5110988;28;20332;-62
2022/12/09 06:59:33;;;;;;;7.13;5.13;;;;;;;;;;5111408;28;20027;-61
2022/12/09 07:01:58;;;;;;;8.07;4.93;;;;;;;;;;5112374;28;20035;-61
2022/12/09 07:04:24;;;;;;;7.22;5.13;;;;;;;;;;5108326;28;20042;-60
2022/12/09 07:06:49;;;;;;;8.40;4.97;;;;;;;;;;5089113;28;20016;-60
2022/12/09 07:09:18;;;;;;;8.23;5.10;;;;;;;;;;5090531;28;20043;-61
2022/12/09 07:11:47;;;;;;;7.38;5.07;;;;;;;;;;5091999;28;20027;-61
2022/12/09 07:14:18;;;;;;;6.32;5.03;;;;;;;;;;5106757;28;20024;-60
2022/12/09 07:16:43;;;;;;;7.45;5.15;;;;;;;;;;5115848;27;20047;-60
2022/12/09 07:19:18;;;;;;;7.63;4.95;;;;;;;;;;5115710;28;20051;-62
2022/12/09 07:21:44;;;;;;;7.60;5.45;;;;;;;;;;5115640;27;20501;-60
2022/12/09 07:24:11;;;;;;;8.88;5.60;;;;;;;;;;5115616;28;20055;-62
2022/12/09 07:26:37;;;;;;;8.68;5.38;;;;;;;;;;5115731;27;20106;-60
2022/12/09 07:29:04;;;;;;;7.22;4.53;;;;;;;;;;5115532;28;20030;-60
2022/12/09 07:31:30;;;;;;;6.15;4.80;;;;;;;;;;5106581;28;20016;-62
2022/12/09 07:33:57;;;;;;;7.88;5.03;;;;;;;;;;5094922;28;20028;-60
2022/12/09 07:36:25;;;;;;;6.80;4.47;;;;;;;;;;5100886;28;20020;-60
2022/12/09 07:38:54;;;;;;;7.97;4.70;;;;;;;;;;5115328;28;20065;-61
2022/12/09 07:41:20;;;;;;;6.68;5.15;;;;;;;;;;5115231;28;20019;-61
2022/12/09 07:43:47;;;;;;;7.60;5.05;;;;;;;;;;5115521;28;20027;-63
2022/12/09 07:46:14;;;;;;;7.00;5.18;;;;;;;;;;5115274;28;20122;-62
2022/12/09 07:48:40;;;;;;;7.60;5.35;;;;;;;;;;5113154;28;20124;-61
2022/12/09 07:51:06;;;;;;;6.55;4.75;;;;;;;;;;5112287;28;20475;-61
2022/12/09 07:53:34;;;;;;;9.75;5.57;;;;;;;;;;5115154;28;20538;-63
2022/12/09 07:56:04;;;;;;;9.02;5.13;;;;;;;;;;5114999;28;20027;-61
2022/12/09 07:58:30;;;;;;;7.32;4.93;;;;;;;;;;5115724;28;20031;-60
2022/12/09 08:00:55;;;;;;;8.60;4.70;;;;;;;;;;5111050;28;20517;-62
2022/12/09 08:03:21;;;;;;;6.80;4.93;;;;;;;;;;5094490;28;20410;-62
2022/12/09 08:05:51;;;;;;;7.70;4.97;;;;;;;;;;5095011;28;20051;-60
2022/12/09 08:08:17;;;;;;;8.93;5.18;;;;;;;;;;5105178;28;20180;-60
2022/12/09 08:10:45;;;;;;;8.23;4.88;;;;;;;;;;5113373;28;20488;-61
2022/12/09 08:13:11;;;;;;;7.60;5.00;;;;;;;;;;5115012;27;20031;-62
2022/12/09 08:15:37;;;;;;;6.97;4.80;;;;;;;;;;5114577;28;20024;-62
2022/12/09 08:18:03;;;;;;;8.20;5.10;;;;;;;;;;5109244;28;20392;-60
2022/12/09 08:20:30;;;;;;;7.18;4.90;;;;;;;;;;5094158;28;20361;-62
2022/12/09 08:22:56;;;;;;;7.57;5.15;;;;;;;;;;5093866;28;20040;-62
2022/12/09 08:25:22;;;;;;;6.90;5.10;;;;;;;;;;5093665;28;20030;-62
2022/12/09 08:27:48;;;;;;;7.68;5.10;;;;;;;;;;5094383;28;20070;-62
2022/12/09 08:30:16;;;;;;;9.10;5.20;;;;;;;;;;5093850;28;20458;-61
2022/12/09 08:32:42;;;;;;;8.82;4.90;;;;;;;;;;5097890;28;20035;-63
2022/12/09 08:35:13;;;;;;;7.38;5.38;;;;;;;;;;5095128;28;20073;-62
2022/12/09 08:37:42;;;;;;;7.68;4.95;;;;;;;;;;5093647;28;20032;-61
2022/12/09 08:40:08;;;;;;;7.18;5.18;;;;;;;;;;5093917;28;20059;-62
2022/12/09 08:42:34;;;;;;;9.30;5.63;;;;;;;;;;5093987;28;20043;-61
2022/12/09 08:44:59;;;;;;;7.97;5.25;;;;;;;;;;5093982;28;20016;-61
2022/12/09 08:47:26;;;;;;;7.50;5.10;;;;;;;;;;5075215;28;20479;-61
2022/12/09 08:49:52;;;;;;;7.38;4.93;;;;;;;;;;5092454;28;20039;-59
2022/12/09 08:52:18;;;;;;;7.88;5.15;;;;;;;;;;5093417;28;20469;-62
2022/12/09 08:54:44;;;;;;;7.10;5.15;;;;;;;;;;5093843;28;20067;-60
2022/12/09 08:57:09;;;;;;;7.60;5.25;;;;;;;;;;5093754;28;20101;-62
2022/12/09 08:59:35;;;;;;;8.93;4.57;;;;;;;;;;5093500;28;20383;-60
2022/12/09 09:02:00;;;;;;;8.95;5.28;;;;;;;;;;5093758;28;20375;-61
2022/12/09 09:04:26;;;;;;;9.15;5.40;;;;;;;;;;5093939;28;20516;-62
2022/12/09 09:06:52;;;;;;;6.78;4.75;;;;;;;;;;5093426;28;20119;-60
2022/12/09 09:09:19;;;;;;;9.18;5.70;;;;;;;;;;5093389;28;20027;-61
2022/12/09 09:11:45;;;;;;;9.18;5.88;;;;;;;;;;5093261;28;20024;-60
2022/12/09 09:14:12;;;;;;;9.93;6.28;;;;;;;;;;5094500;28;20042;-61
2022/12/09 09:16:42;;;;;;;8.50;5.82;;;;;;;;;;5093035;28;20020;-62
2022/12/09 09:19:11;;;;;;;;;;;;;;;;;;5093992;28;20040;-60
2022/12/09 09:21:37;;;;;;;7.93;5.00;;;;;;;;;;5093822;28;19935;-59
2022/12/09 09:24:10;;;;;;;9.43;5.80;;;;;;;;;;5095003;28;20028;-59
2022/12/09 09:26:41;;;;;;;9.38;5.55;;;;;;;;;;5093464;28;20380;-60
2022/12/09 09:29:10;;;;;;;9.70;6.00;;;;;;;;;;5093187;28;20035;-60
2022/12/09 09:31:35;;;;;;;8.20;5.95;;;;;;;;;;5093264;28;20016;-60
2022/12/09 09:34:01;;;;;;;9.48;5.30;;;;;;;;;;5092734;28;20480;-62
2022/12/09 09:36:26;;;;;;;8.73;5.45;;;;;;;;;;5104309;28;20035;-61
2022/12/09 09:38:54;;;;;;;10.05;5.78;;;;;;;;;;5094967;28;20039;-62
2022/12/09 09:41:42;;;;;;;8.77;5.85;;;;;;;;;;5110529;28;20023;-60
2022/12/09 09:44:45;;;;;;;8.90;5.63;;;;;;;;;;5112111;28;20034;-60
2022/12/09 09:47:24;;;;;;;9.25;5.35;;;;;;;;;;5111739;28;20058;-60
2022/12/09 09:50:03;;;;;;;9.10;5.60;;;;;;;;;;5113277;28;20039;-60
2022/12/09 09:52:29;;;;;;;8.00;5.63;;;;;;;;;;5111724;28;20134;-60
2022/12/09 09:54:55;;;;;;;8.45;5.63;;;;;;;;;;5093544;28;20024;-62
2022/12/09 09:57:27;;;;;;;8.52;5.05;;;;;;;;;;5094345;28;20039;-61
2022/12/09 10:00:30;;;;;;;9.48;5.85;;;;;;;;;;5106324;28;20023;-62
2022/12/09 10:03:02;;;;;;;9.55;5.65;;;;;;;;;;5111294;28;20035;-59
2022/12/09 10:05:33;;;;;;;7.97;5.53;;;;;;;;;;5107918;28;20103;-60
2022/12/09 10:08:17;;;;;;;9.02;5.93;;;;;;;;;;5111453;28;20439;-60
2022/12/09 10:10:54;;;;;;;8.65;6.22;;;;;;;;;;5109872;28;20360;-60
2022/12/09 10:13:39;;;;;;;8.88;5.95;;;;;;;;;;5111428;28;20028;-62
2022/12/09 10:16:27;;;;;;;8.85;5.70;;;;;;;;;;5111422;28;20034;-60
2022/12/09 10:19:22;;;;;;;9.13;5.75;;;;;;;;;;5109869;28;20494;-59
2022/12/09 10:21:51;;;;;;;8.25;5.60;;;;;;;;;;5111096;28;20107;-60
2022/12/09 10:24:33;;;;;;;9.70;5.70;;;;;;;;;;5110991;28;20538;-60
2022/12/09 10:27:29;;;;;;;8.38;5.60;;;;;;;;;;5111025;28;20464;-62
2022/12/09 10:30:07;;;;;;;11.63;5.55;;;;;;;;;;5090825;28;20032;-60
2022/12/09 10:32:34;;;;;;;8.38;5.68;;;;;;;;;;5090888;28;20028;-62
2022/12/09 10:35:10;;;;;;;8.73;5.50;;;;;;;;;;5090609;28;20024;-60
2022/12/09 10:37:36;;;;;;;8.35;5.53;;;;;;;;;;5090736;28;20024;-59
2022/12/09 10:40:10;;;;;;;8.57;5.50;;;;;;;;;;5090820;28;20468;-60
2022/12/09 10:45:40;;;;;;;7.35;5.15;;;;;;;;;;5111153;28;20042;-62
2022/12/09 10:48:26;;;;;;;9.20;5.50;;;;;;;;;;5112273;28;20035;-60
2022/12/09 10:50:56;;;;;;;9.18;5.90;;;;;;;;;;5111176;28;20027;-61
2022/12/09 10:53:23;;;;;;;8.52;5.50;;;;;;;;;;5112449;28;20035;-61
2022/12/09 10:55:51;;;;;;;7.72;5.43;;;;;;;;;;5111595;28;20118;-61
2022/12/09 10:58:28;;;;;;;9.35;5.60;;;;;;;;;;5114884;28;20084;-60
2022/12/09 11:00:59;;;;;;;8.95;5.72;;;;;;;;;;5113568;28;20031;-61
2022/12/09 11:03:30;;;;;;;7.30;5.10;;;;;;;;;;5111911;28;20088;-60
2022/12/09 11:05:59;;;;;;;8.98;5.85;;;;;;;;;;5111860;28;20032;-60
2022/12/09 11:08:25;;;;;;;11.52;5.55;;;;;;;;;;5112414;28;20020;-61
2022/12/09 11:10:51;;;;;;;9.23;5.93;;;;;;;;;;5113862;28;20433;-60
2022/12/09 11:13:19;;;;;;;8.30;5.53;;;;;;;;;;5110432;28;20024;-61
2022/12/09 11:15:50;;;;;;;9.35;5.40;;;;;;;;;;5109609;28;20028;-61
2022/12/09 11:18:21;;;;;;;8.60;5.63;;;;;;;;;;5092636;28;20036;-62
2022/12/09 11:20:54;;;;;;;9.18;5.88;;;;;;;;;;5093538;28;20032;-60
2022/12/09 11:23:20;;;;;;;9.18;5.78;;;;;;;;;;5093981;28;20093;-63
2022/12/09 11:26:03;;;;;;;9.48;5.65;;;;;;;;;;5093693;28;20032;-61
2022/12/09 11:28:39;;;;;;;7.63;5.25;;;;;;;;;;5107234;28;20099;-62
2022/12/09 11:31:18;;;;;;;8.07;5.70;;;;;;;;;;5107720;28;20024;-61
2022/12/09 11:33:56;;;;;;;8.48;5.90;;;;;;;;;;5111481;28;20100;-60
2022/12/09 11:36:33;;;;;;;9.98;6.05;;;;;;;;;;5109490;28;20036;-61
2022/12/09 11:39:31;;;;;;;8.70;5.97;;;;;;;;;;5111078;28;20110;-60
2022/12/09 11:42:19;;;;;;;7.18;5.03;;;;;;;;;;5109617;28;20146;-59
2022/12/09 11:44:55;;;;;;;9.65;5.82;;;;;;;;;;5112867;28;20031;-61
2022/12/09 11:47:42;;;;;;;9.80;6.00;;;;;;;;;;5113632;28;20044;-59
2022/12/09 11:50:19;;;;;;;8.27;5.65;;;;;;;;;;5112319;28;20567;-60
2022/12/09 11:52:45;;;;;;;8.00;5.53;;;;;;;;;;5113442;28;20020;-62
2022/12/09 11:55:20;;;;;;;7.82;5.28;;;;;;;;;;5113466;27;20031;-60
2022/12/09 11:57:57;;;;;;;10.23;6.20;;;;;;;;;;5113813;28;20034;-59
2022/12/09 12:00:33;;;;;;;8.18;5.82;;;;;;;;;;5110690;28;20038;-61
2022/12/09 12:03:22;;;;;;;8.82;5.95;;;;;;;;;;5109378;28;20012;-60
2022/12/09 12:05:51;;;;;;;8.97;6.17;;;;;;;;;;5109618;28;20515;-60
2022/12/09 12:08:19;;;;;;;9.77;6.10;;;;;;;;;;5109932;28;20164;-60
2022/12/09 12:10:50;;;;;;;10.23;6.03;;;;;;;;;;5111759;28;20035;-60
2022/12/09 12:13:49;;;;;;;8.77;6.25;;;;;;;;;;5113123;28;20475;-61
2022/12/09 12:16:46;;;;;;;11.07;6.10;;;;;;;;;;5112281;28;20463;-63
2022/12/09 12:19:37;;;;;;;8.15;5.65;;;;;;;;;;5113072;28;20058;-60
2022/12/09 12:22:26;;;;;;;10.27;6.43;;;;;;;;;;5112904;28;20077;-60
2022/12/09 12:25:08;;;;;;;8.98;6.13;;;;;;;;;;5113273;28;20030;-62
2022/12/09 12:27:55;;;;;;;10.65;6.05;;;;;;;;;;5113054;27;20118;-60
2022/12/09 12:30:24;;;;;;;9.35;6.05;;;;;;;;;;5112856;28;20035;-60
2022/12/09 12:33:10;;;;;;;9.90;6.20;;;;;;;;;;5112798;28;20028;-60
2022/12/09 12:35:51;;;;;;;13.65;6.30;;;;;;;;;;5111270;28;20027;-61
2022/12/09 12:38:55;;;;;;;8.23;6.13;;;;;;;;;;5112791;28;20042;-62
2022/12/09 12:41:39;;;;;;;8.57;5.78;;;;;;;;;;5089150;28;20043;-60
2022/12/09 12:47:00;;;;;;;8.05;5.72;;;;;;;;;;5105480;28;20104;-60
2022/12/09 12:49:35;;;;;;;9.30;5.85;;;;;;;;;;5112569;28;20040;-62
2022/12/09 12:52:26;;;;;;;9.18;5.90;;;;;;;;;;5112481;28;20028;-59
2022/12/09 12:55:13;;;;;;;10.02;6.60;;;;;;;;;;5101723;28;20479;-60
2022/12/09 12:57:53;;;;;;;14.70;6.03;;;;;;;;;;5112757;28;20054;-60
2022/12/09 13:00:23;;;;;;;;;;;;;;;;;;5112387;28;20169;-60
2022/12/09 13:03:10;;;;;;;8.70;6.10;;;;;;;;;;5091956;28;19908;-61
2022/12/09 13:05:43;;;;;;;9.60;5.78;;;;;;;;;;5091902;28;20256;-61
2022/12/09 13:08:12;;;;;;;19.48;6.00;;;;;;;;;;5091551;28;20548;-62
2022/12/09 13:10:45;;;;;;;11.03;6.40;;;;;;;;;;5092359;28;20050;-64
2022/12/09 13:13:26;;;;;;;10.25;6.22;;;;;;;;;;5111287;28;20028;-60
2022/12/09 13:15:55;;;;;;;8.45;5.78;;;;;;;;;;5112450;28;20076;-60
2022/12/09 13:18:32;;;;;;;9.25;6.07;;;;;;;;;;5108346;28;20395;-60
2022/12/09 13:21:00;;;;;;;10.05;6.13;;;;;;;;;;5111808;28;20031;-60
2022/12/09 13:23:48;;;;;;;10.50;5.72;;;;;;;;;;5109704;28;20118;-60
2022/12/09 13:26:37;;;;;;;10.02;6.32;;;;;;;;;;5101777;28;20511;-62
2022/12/09 13:29:05;;;;;;;9.43;5.78;;;;;;;;;;5112659;28;20031;-60
2022/12/09 13:31:34;;;;;;;9.27;6.13;;;;;;;;;;5110030;28;20036;-61
2022/12/09 13:34:06;;;;;;;8.25;5.75;;;;;;;;;;5110633;28;20038;-63
2022/12/09 13:36:44;;;;;;;11.57;5.80;;;;;;;;;;5109436;28;20779;-62
2022/12/09 13:39:40;;;;;;;9.23;5.60;;;;;;;;;;5109393;28;20057;-60
2022/12/09 13:45:23;;;;;;;6.30;5.03;;;;;;;;;;5108901;28;20069;-60
2022/12/09 13:47:52;;;;;;;9.73;5.90;;;;;;;;;;5112393;28;20051;-59
2022/12/09 13:50:33;;;;;;;10.30;6.13;;;;;;;;;;5112290;28;20116;-62
2022/12/09 13:53:02;;;;;;;8.75;6.10;;;;;;;;;;5109872;28;20027;-59
2022/12/09 13:56:03;;;;;;;9.35;5.65;;;;;;;;;;5109134;28;20135;-60
2022/12/09 13:59:19;;;;;;;8.90;5.72;;;;;;;;;;5086830;28;20113;-60
2022/12/09 14:01:49;;;;;;;7.93;5.40;;;;;;;;;;5065402;28;20032;-61
2022/12/09 14:04:24;;;;;;;10.02;6.00;;;;;;;;;;5107152;28;20447;-60
2022/12/09 14:07:20;;;;;;;10.10;6.78;;;;;;;;;;5108720;28;20070;-62
2022/12/09 14:10:05;;;;;;;12.45;6.03;;;;;;;;;;5110084;28;20511;-63
2022/12/09 14:12:31;;;;;;;8.85;5.95;;;;;;;;;;5110806;28;20506;-60
2022/12/09 14:15:25;;;;;;;8.63;6.13;;;;;;;;;;5109687;28;20040;-61
2022/12/09 14:17:50;;;;;;;8.73;5.78;;;;;;;;;;5111029;28;20115;-63
2022/12/09 14:20:23;;;;;;;9.30;5.78;;;;;;;;;;5107188;28;20122;-63
2022/12/09 14:23:08;;;;;;;11.27;6.25;;;;;;;;;;5109223;28;20094;-64
2022/12/09 14:25:34;;;;;;;7.53;6.00;;;;;;;;;;5113936;28;20472;-65
2022/12/09 14:28:08;;;;;;;7.03;5.13;;;;;;;;;;5114800;28;20115;-64
2022/12/09 14:30:46;;;;;;;8.32;5.68;;;;;;;;;;5115266;27;20040;-62
2022/12/09 14:33:28;;;;;;;9.85;5.57;;;;;;;;;;5112505;28;20030;-65
2022/12/09 14:36:14;;;;;;;7.30;5.28;;;;;;;;;;5115400;28;20427;-64
2022/12/09 14:38:42;;;;;;;9.63;5.93;;;;;;;;;;5110810;28;20035;-64
2022/12/09 14:41:23;;;;;;;9.88;5.90;;;;;;;;;;5114791;28;20051;-61
2022/12/09 14:43:51;;;;;;;10.30;6.07;;;;;;;;;;5114907;28;20036;-63
2022/12/09 14:46:25;;;;;;;9.00;5.45;;;;;;;;;;5115072;28;20059;-60
2022/12/09 14:48:55;;;;;;;9.48;5.88;;;;;;;;;;5114028;28;20109;-61
2022/12/09 14:51:36;;;;;;;12.82;6.50;;;;;;;;;;5114580;28;20046;-62
2022/12/09 14:54:33;;;;;;;9.15;5.78;;;;;;;;;;5115010;28;20375;-63
2022/12/09 14:57:00;;;;;;;11.55;6.30;;;;;;;;;;5114750;28;20105;-61
2022/12/09 14:59:29;;;;;;;13.45;5.70;;;;;;;;;;5114715;28;20364;-63
2022/12/09 15:02:07;;;;;;;10.63;5.70;;;;;;;;;;5114231;28;20106;-59
2022/12/09 15:04:41;;;;;;;12.57;6.57;;;;;;;;;;5114926;28;20055;-59
2022/12/09 15:07:32;;;;;;;9.82;5.85;;;;;;;;;;5114439;28;20039;-58
2022/12/09 15:10:16;;;;;;;21.88;7.57;;;;;;;;;;5114466;28;20164;-58
2022/12/09 15:12:49;;;;;;;20.17;7.35;;;;;;;;;;5114159;28;20056;-60
2022/12/09 15:15:31;;;;;;;25.98;7.30;;;;;;;;;;5114429;27;20429;-58
2022/12/09 15:18:03;;;;;;;31.80;8.10;;;;;;;;;;5114591;28;20111;-59